Terminal Aerodrome Forecast
Issued by NWS

Current Version | Previous Version | Text Only | Print | Product List | Glossary On
Versions: 1 2 3 4 5 6 7 8 9 10 11 12 13 14 15
000
FTUS41 KBTV 260522
TAFRUT
TAF
KRUT 260522Z 2606/2706 VRB04KT P6SM OVC150
     FM261600 VRB03KT 1 1/2SM -SN BR OVC015
     FM261900 VRB03KT 1/2SM SN FG OVC008
     FM270400 00000KT 1 1/2SM -SN BR OVC003
      AMD LTD TO CLD VIS AND WIND=

USA.gov is the U.S. government's official web portal to all federal, state and local government web resources and services.